sensor_id;sensor_type;location;lat;lon;timestamp;P1;durP1;ratioP1;P2;durP2;ratioP2
27225;SDS011;14732;51.074;3.788;2024-02-26T00:00:35;4.32;;;1.05;;
27225;SDS011;14732;51.074;3.788;2024-02-26T00:06:23;2.85;;;1.40;;
27225;SDS011;14732;51.074;3.788;2024-02-26T00:12:22;1.58;;;1.10;;
27225;SDS011;14732;51.074;3.788;2024-02-26T00:21:04;2.15;;;1.30;;
27225;SDS011;14732;51.074;3.788;2024-02-26T00:23:30;3.03;;;1.20;;
27225;SDS011;14732;51.074;3.788;2024-02-26T00:26:04;4.65;;;1.40;;
27225;SDS011;14732;51.074;3.788;2024-02-26T00:51:45;6.13;;;1.63;;
27225;SDS011;14732;51.074;3.788;2024-02-26T01:00:31;2.20;;;1.30;;
27225;SDS011;14732;51.074;3.788;2024-02-26T01:02:56;2.55;;;1.58;;
27225;SDS011;14732;51.074;3.788;2024-02-26T01:15:04;3.47;;;1.55;;
27225;SDS011;14732;51.074;3.788;2024-02-26T01:20:52;2.38;;;1.20;;
27225;SDS011;14732;51.074;3.788;2024-02-26T01:29:34;3.95;;;1.50;;
27225;SDS011;14732;51.074;3.788;2024-02-26T01:32:00;2.47;;;1.30;;
27225;SDS011;14732;51.074;3.788;2024-02-26T01:34:34;3.05;;;1.38;;
27225;SDS011;14732;51.074;3.788;2024-02-26T01:37:02;3.95;;;1.33;;
27225;SDS011;14732;51.074;3.788;2024-02-26T01:39:27;4.03;;;1.60;;
27225;SDS011;14732;51.074;3.788;2024-02-26T01:41:55;4.80;;;1.70;;
27225;SDS011;14732;51.074;3.788;2024-02-26T01:44:36;1.67;;;1.30;;
27225;SDS011;14732;51.074;3.788;2024-02-26T01:47:03;2.28;;;1.50;;
27225;SDS011;14732;51.074;3.788;2024-02-26T01:49:30;4.03;;;1.58;;
27225;SDS011;14732;51.074;3.788;2024-02-26T01:54:59;2.65;;;1.60;;
27225;SDS011;14732;51.074;3.788;2024-02-26T01:57:26;2.60;;;1.63;;
27225;SDS011;14732;51.074;3.788;2024-02-26T02:02:45;3.20;;;1.80;;
27225;SDS011;14732;51.074;3.788;2024-02-26T02:07:45;4.60;;;1.35;;
27225;SDS011;14732;51.074;3.788;2024-02-26T02:10:11;2.28;;;1.50;;
27225;SDS011;14732;51.074;3.788;2024-02-26T02:12:37;1.67;;;1.40;;
27225;SDS011;14732;51.074;3.788;2024-02-26T02:15:05;2.78;;;1.50;;
27225;SDS011;14732;51.074;3.788;2024-02-26T02:17:37;2.00;;;1.50;;
27225;SDS011;14732;51.074;3.788;2024-02-26T02:23:25;3.40;;;1.70;;
27225;SDS011;14732;51.074;3.788;2024-02-26T02:25:51;2.22;;;1.80;;
27225;SDS011;14732;51.074;3.788;2024-02-26T02:28:17;2.05;;;1.60;;
27225;SDS011;14732;51.074;3.788;2024-02-26T02:30:43;3.63;;;2.10;;
27225;SDS011;14732;51.074;3.788;2024-02-26T02:33:09;2.85;;;2.20;;
27225;SDS011;14732;51.074;3.788;2024-02-26T02:35:36;3.92;;;2.20;;
27225;SDS011;14732;51.074;3.788;2024-02-26T02:38:02;3.13;;;2.00;;
27225;SDS011;14732;51.074;3.788;2024-02-26T02:40:28;3.10;;;2.13;;
27225;SDS011;14732;51.074;3.788;2024-02-26T02:42:54;4.57;;;2.15;;
27225;SDS011;14732;51.074;3.788;2024-02-26T02:45:19;2.72;;;2.22;;
27225;SDS011;14732;51.074;3.788;2024-02-26T02:47:45;2.47;;;1.98;;
27225;SDS011;14732;51.074;3.788;2024-02-26T02:50:11;3.05;;;2.25;;
27225;SDS011;14732;51.074;3.788;2024-02-26T02:52:36;3.10;;;2.17;;
27225;SDS011;14732;51.074;3.788;2024-02-26T02:55:02;3.10;;;2.40;;
27225;SDS011;14732;51.074;3.788;2024-02-26T02:57:28;3.13;;;2.30;;
27225;SDS011;14732;51.074;3.788;2024-02-26T02:59:55;2.67;;;2.35;;
27225;SDS011;14732;51.074;3.788;2024-02-26T03:02:21;4.45;;;2.47;;
27225;SDS011;14732;51.074;3.788;2024-02-26T03:04:49;3.65;;;2.58;;
27225;SDS011;14732;51.074;3.788;2024-02-26T03:07:15;4.22;;;2.40;;
27225;SDS011;14732;51.074;3.788;2024-02-26T03:09:41;4.18;;;3.00;;
27225;SDS011;14732;51.074;3.788;2024-02-26T03:12:07;5.35;;;3.00;;
27225;SDS011;14732;51.074;3.788;2024-02-26T03:14:32;3.72;;;3.00;;
27225;SDS011;14732;51.074;3.788;2024-02-26T03:16:58;5.20;;;3.65;;
27225;SDS011;14732;51.074;3.788;2024-02-26T03:19:24;5.15;;;3.78;;
27225;SDS011;14732;51.074;3.788;2024-02-26T03:21:49;7.28;;;4.50;;
27225;SDS011;14732;51.074;3.788;2024-02-26T03:24:15;5.72;;;3.60;;
27225;SDS011;14732;51.074;3.788;2024-02-26T03:26:40;6.05;;;5.20;;
27225;SDS011;14732;51.074;3.788;2024-02-26T03:29:06;5.70;;;4.38;;
27225;SDS011;14732;51.074;3.788;2024-02-26T03:31:32;7.35;;;5.38;;
27225;SDS011;14732;51.074;3.788;2024-02-26T03:33:57;6.78;;;4.57;;
27225;SDS011;14732;51.074;3.788;2024-02-26T03:36:23;7.43;;;5.35;;
27225;SDS011;14732;51.074;3.788;2024-02-26T03:38:49;8.95;;;4.38;;
27225;SDS011;14732;51.074;3.788;2024-02-26T03:41:14;8.00;;;5.15;;
27225;SDS011;14732;51.074;3.788;2024-02-26T03:43:40;6.20;;;5.60;;
27225;SDS011;14732;51.074;3.788;2024-02-26T03:46:09;7.30;;;5.38;;
27225;SDS011;14732;51.074;3.788;2024-02-26T03:48:38;7.13;;;5.13;;
27225;SDS011;14732;51.074;3.788;2024-02-26T03:51:08;6.50;;;5.50;;
27225;SDS011;14732;51.074;3.788;2024-02-26T03:53:35;5.47;;;4.63;;
27225;SDS011;14732;51.074;3.788;2024-02-26T03:56:04;6.22;;;5.30;;
27225;SDS011;14732;51.074;3.788;2024-02-26T03:58:31;7.60;;;5.72;;
27225;SDS011;14732;51.074;3.788;2024-02-26T04:00:57;8.48;;;6.65;;
27225;SDS011;14732;51.074;3.788;2024-02-26T04:03:22;7.47;;;6.63;;
27225;SDS011;14732;51.074;3.788;2024-02-26T04:05:48;9.27;;;6.30;;
27225;SDS011;14732;51.074;3.788;2024-02-26T04:08:13;8.45;;;7.07;;
27225;SDS011;14732;51.074;3.788;2024-02-26T04:10:39;11.70;;;7.78;;
27225;SDS011;14732;51.074;3.788;2024-02-26T04:13:06;12.90;;;8.57;;
27225;SDS011;14732;51.074;3.788;2024-02-26T04:15:32;9.02;;;6.72;;
27225;SDS011;14732;51.074;3.788;2024-02-26T04:17:58;9.98;;;8.18;;
27225;SDS011;14732;51.074;3.788;2024-02-26T04:20:24;11.52;;;7.97;;
27225;SDS011;14732;51.074;3.788;2024-02-26T04:22:49;10.32;;;8.25;;
27225;SDS011;14732;51.074;3.788;2024-02-26T04:25:15;12.55;;;8.70;;
27225;SDS011;14732;51.074;3.788;2024-02-26T04:27:41;12.35;;;8.68;;
27225;SDS011;14732;51.074;3.788;2024-02-26T04:30:06;13.10;;;4.63;;
27225;SDS011;14732;51.074;3.788;2024-02-26T04:32:33;11.50;;;7.25;;
27225;SDS011;14732;51.074;3.788;2024-02-26T04:34:59;13.15;;;8.32;;
27225;SDS011;14732;51.074;3.788;2024-02-26T04:37:25;10.18;;;7.40;;
27225;SDS011;14732;51.074;3.788;2024-02-26T04:39:57;10.32;;;7.40;;
27225;SDS011;14732;51.074;3.788;2024-02-26T04:42:23;9.40;;;7.47;;
27225;SDS011;14732;51.074;3.788;2024-02-26T04:44:49;9.57;;;7.32;;
27225;SDS011;14732;51.074;3.788;2024-02-26T04:47:14;11.45;;;7.55;;
27225;SDS011;14732;51.074;3.788;2024-02-26T04:49:40;10.35;;;7.32;;
27225;SDS011;14732;51.074;3.788;2024-02-26T04:52:06;10.27;;;7.40;;
27225;SDS011;14732;51.074;3.788;2024-02-26T04:54:31;10.13;;;7.50;;
27225;SDS011;14732;51.074;3.788;2024-02-26T04:56:57;10.15;;;7.28;;
27225;SDS011;14732;51.074;3.788;2024-02-26T04:59:23;7.38;;;5.88;;
27225;SDS011;14732;51.074;3.788;2024-02-26T05:01:48;8.52;;;5.80;;
27225;SDS011;14732;51.074;3.788;2024-02-26T05:04:16;7.60;;;6.63;;
27225;SDS011;14732;51.074;3.788;2024-02-26T05:06:41;7.18;;;6.47;;
27225;SDS011;14732;51.074;3.788;2024-02-26T05:09:07;7.88;;;6.80;;
27225;SDS011;14732;51.074;3.788;2024-02-26T05:11:33;7.15;;;6.28;;
27225;SDS011;14732;51.074;3.788;2024-02-26T05:13:59;8.10;;;6.47;;
27225;SDS011;14732;51.074;3.788;2024-02-26T05:16:25;9.73;;;6.50;;
27225;SDS011;14732;51.074;3.788;2024-02-26T05:18:52;8.70;;;6.82;;
27225;SDS011;14732;51.074;3.788;2024-02-26T05:21:18;7.47;;;6.28;;
27225;SDS011;14732;51.074;3.788;2024-02-26T05:23:43;7.72;;;5.47;;
27225;SDS011;14732;51.074;3.788;2024-02-26T05:26:10;9.75;;;6.30;;
27225;SDS011;14732;51.074;3.788;2024-02-26T05:28:36;7.80;;;5.75;;
27225;SDS011;14732;51.074;3.788;2024-02-26T05:31:04;8.30;;;5.70;;
27225;SDS011;14732;51.074;3.788;2024-02-26T05:33:30;6.50;;;5.22;;
27225;SDS011;14732;51.074;3.788;2024-02-26T05:35:56;7.38;;;5.45;;
27225;SDS011;14732;51.074;3.788;2024-02-26T05:38:21;8.25;;;5.07;;
27225;SDS011;14732;51.074;3.788;2024-02-26T05:40:47;5.88;;;4.32;;
27225;SDS011;14732;51.074;3.788;2024-02-26T05:43:13;6.80;;;5.25;;
27225;SDS011;14732;51.074;3.788;2024-02-26T05:45:40;7.30;;;5.55;;
27225;SDS011;14732;51.074;3.788;2024-02-26T05:48:06;8.27;;;5.10;;
27225;SDS011;14732;51.074;3.788;2024-02-26T05:50:32;7.13;;;5.30;;
27225;SDS011;14732;51.074;3.788;2024-02-26T05:52:57;7.00;;;5.45;;
27225;SDS011;14732;51.074;3.788;2024-02-26T05:58:45;7.50;;;5.70;;
27225;SDS011;14732;51.074;3.788;2024-02-26T06:01:11;7.75;;;5.88;;
27225;SDS011;14732;51.074;3.788;2024-02-26T06:03:37;7.00;;;5.07;;
27225;SDS011;14732;51.074;3.788;2024-02-26T06:06:02;8.05;;;6.15;;
27225;SDS011;14732;51.074;3.788;2024-02-26T06:08:28;10.55;;;7.25;;
27225;SDS011;14732;51.074;3.788;2024-02-26T06:10:54;8.25;;;6.22;;
27225;SDS011;14732;51.074;3.788;2024-02-26T06:13:20;7.97;;;5.60;;
27225;SDS011;14732;51.074;3.788;2024-02-26T06:15:45;6.60;;;5.75;;
27225;SDS011;14732;51.074;3.788;2024-02-26T06:18:11;9.60;;;6.70;;
27225;SDS011;14732;51.074;3.788;2024-02-26T06:20:37;10.15;;;5.68;;
27225;SDS011;14732;51.074;3.788;2024-02-26T06:23:02;9.95;;;6.13;;
27225;SDS011;14732;51.074;3.788;2024-02-26T06:25:28;9.55;;;6.05;;
27225;SDS011;14732;51.074;3.788;2024-02-26T06:27:54;8.55;;;5.68;;
27225;SDS011;14732;51.074;3.788;2024-02-26T06:30:20;8.60;;;6.53;;
27225;SDS011;14732;51.074;3.788;2024-02-26T06:32:46;9.70;;;6.70;;
27225;SDS011;14732;51.074;3.788;2024-02-26T06:35:11;10.60;;;6.75;;
27225;SDS011;14732;51.074;3.788;2024-02-26T06:37:37;10.27;;;6.50;;
27225;SDS011;14732;51.074;3.788;2024-02-26T06:40:03;7.72;;;6.22;;
27225;SDS011;14732;51.074;3.788;2024-02-26T06:42:31;9.18;;;5.20;;
27225;SDS011;14732;51.074;3.788;2024-02-26T06:44:57;7.80;;;5.78;;
27225;SDS011;14732;51.074;3.788;2024-02-26T06:47:23;7.47;;;5.50;;
27225;SDS011;14732;51.074;3.788;2024-02-26T06:49:48;6.43;;;4.53;;
27225;SDS011;14732;51.074;3.788;2024-02-26T06:52:14;6.90;;;5.30;;
27225;SDS011;14732;51.074;3.788;2024-02-26T06:54:40;7.72;;;5.90;;
27225;SDS011;14732;51.074;3.788;2024-02-26T06:57:06;8.75;;;6.07;;
27225;SDS011;14732;51.074;3.788;2024-02-26T06:59:32;8.82;;;6.00;;
27225;SDS011;14732;51.074;3.788;2024-02-26T07:01:57;7.28;;;5.22;;
27225;SDS011;14732;51.074;3.788;2024-02-26T07:04:23;7.30;;;5.97;;
27225;SDS011;14732;51.074;3.788;2024-02-26T07:06:49;8.48;;;5.93;;
27225;SDS011;14732;51.074;3.788;2024-02-26T07:09:14;6.43;;;5.03;;
27225;SDS011;14732;51.074;3.788;2024-02-26T07:11:41;10.38;;;6.25;;
27225;SDS011;14732;51.074;3.788;2024-02-26T07:14:11;8.60;;;6.40;;
27225;SDS011;14732;51.074;3.788;2024-02-26T07:16:37;7.63;;;6.10;;
27225;SDS011;14732;51.074;3.788;2024-02-26T07:19:03;7.45;;;5.32;;
27225;SDS011;14732;51.074;3.788;2024-02-26T07:21:29;7.78;;;5.97;;
27225;SDS011;14732;51.074;3.788;2024-02-26T07:23:55;6.63;;;4.88;;
27225;SDS011;14732;51.074;3.788;2024-02-26T07:26:21;8.57;;;5.72;;
27225;SDS011;14732;51.074;3.788;2024-02-26T07:28:49;8.43;;;6.07;;
27225;SDS011;14732;51.074;3.788;2024-02-26T07:31:15;8.25;;;5.95;;
27225;SDS011;14732;51.074;3.788;2024-02-26T07:33:42;6.13;;;5.18;;
27225;SDS011;14732;51.074;3.788;2024-02-26T07:36:08;9.65;;;5.95;;
27225;SDS011;14732;51.074;3.788;2024-02-26T07:38:33;9.68;;;6.35;;
27225;SDS011;14732;51.074;3.788;2024-02-26T07:40:59;7.05;;;4.70;;
27225;SDS011;14732;51.074;3.788;2024-02-26T07:43:27;6.80;;;5.55;;
27225;SDS011;14732;51.074;3.788;2024-02-26T07:45:53;8.65;;;5.47;;
27225;SDS011;14732;51.074;3.788;2024-02-26T07:48:18;9.15;;;5.00;;
27225;SDS011;14732;51.074;3.788;2024-02-26T07:50:44;6.60;;;3.95;;
27225;SDS011;14732;51.074;3.788;2024-02-26T07:53:10;7.85;;;5.15;;
27225;SDS011;14732;51.074;3.788;2024-02-26T07:55:35;6.82;;;4.80;;
27225;SDS011;14732;51.074;3.788;2024-02-26T07:58:01;6.10;;;5.03;;
27225;SDS011;14732;51.074;3.788;2024-02-26T08:00:26;7.82;;;5.22;;
27225;SDS011;14732;51.074;3.788;2024-02-26T08:02:52;10.93;;;5.05;;
27225;SDS011;14732;51.074;3.788;2024-02-26T08:05:18;6.45;;;4.80;;
27225;SDS011;14732;51.074;3.788;2024-02-26T08:07:44;5.25;;;4.32;;
27225;SDS011;14732;51.074;3.788;2024-02-26T08:10:09;5.70;;;4.80;;
27225;SDS011;14732;51.074;3.788;2024-02-26T08:12:36;5.57;;;4.80;;
27225;SDS011;14732;51.074;3.788;2024-02-26T08:15:02;7.50;;;4.75;;
27225;SDS011;14732;51.074;3.788;2024-02-26T08:17:28;5.43;;;4.35;;
27225;SDS011;14732;51.074;3.788;2024-02-26T08:19:53;6.22;;;4.68;;
27225;SDS011;14732;51.074;3.788;2024-02-26T08:22:19;10.30;;;5.22;;
27225;SDS011;14732;51.074;3.788;2024-02-26T08:24:45;10.93;;;4.88;;
27225;SDS011;14732;51.074;3.788;2024-02-26T08:27:10;5.97;;;4.25;;
27225;SDS011;14732;51.074;3.788;2024-02-26T08:29:36;6.13;;;4.95;;
27225;SDS011;14732;51.074;3.788;2024-02-26T08:32:01;10.63;;;4.95;;
27225;SDS011;14732;51.074;3.788;2024-02-26T08:34:27;6.22;;;4.85;;
27225;SDS011;14732;51.074;3.788;2024-02-26T08:36:53;7.78;;;4.93;;
27225;SDS011;14732;51.074;3.788;2024-02-26T08:39:19;8.02;;;4.75;;
27225;SDS011;14732;51.074;3.788;2024-02-26T08:41:45;5.45;;;4.32;;
27225;SDS011;14732;51.074;3.788;2024-02-26T08:44:11;5.35;;;4.45;;
27225;SDS011;14732;51.074;3.788;2024-02-26T08:46:37;5.68;;;4.43;;
27225;SDS011;14732;51.074;3.788;2024-02-26T08:49:02;5.45;;;4.18;;
27225;SDS011;14732;51.074;3.788;2024-02-26T08:51:29;6.22;;;4.65;;
27225;SDS011;14732;51.074;3.788;2024-02-26T08:53:54;6.72;;;4.78;;
27225;SDS011;14732;51.074;3.788;2024-02-26T08:56:20;7.03;;;5.03;;
27225;SDS011;14732;51.074;3.788;2024-02-26T08:58:46;7.85;;;5.18;;
27225;SDS011;14732;51.074;3.788;2024-02-26T09:01:18;10.52;;;5.40;;
27225;SDS011;14732;51.074;3.788;2024-02-26T09:03:44;7.60;;;5.13;;
27225;SDS011;14732;51.074;3.788;2024-02-26T09:06:10;7.97;;;5.07;;
27225;SDS011;14732;51.074;3.788;2024-02-26T09:08:37;8.48;;;4.82;;
27225;SDS011;14732;51.074;3.788;2024-02-26T09:11:02;7.35;;;5.00;;
27225;SDS011;14732;51.074;3.788;2024-02-26T09:13:29;7.65;;;5.57;;
27225;SDS011;14732;51.074;3.788;2024-02-26T09:15:54;7.43;;;5.82;;
27225;SDS011;14732;51.074;3.788;2024-02-26T09:18:20;9.13;;;5.97;;
27225;SDS011;14732;51.074;3.788;2024-02-26T09:20:46;8.18;;;6.00;;
27225;SDS011;14732;51.074;3.788;2024-02-26T09:23:11;7.35;;;5.78;;
27225;SDS011;14732;51.074;3.788;2024-02-26T09:25:37;7.93;;;5.55;;
27225;SDS011;14732;51.074;3.788;2024-02-26T09:28:03;10.02;;;6.95;;
27225;SDS011;14732;51.074;3.788;2024-02-26T09:30:29;10.02;;;5.57;;
27225;SDS011;14732;51.074;3.788;2024-02-26T09:32:54;10.82;;;6.45;;
27225;SDS011;14732;51.074;3.788;2024-02-26T09:35:20;10.40;;;5.68;;
27225;SDS011;14732;51.074;3.788;2024-02-26T09:37:49;7.57;;;5.87;;
27225;SDS011;14732;51.074;3.788;2024-02-26T09:40:15;10.05;;;6.85;;
27225;SDS011;14732;51.074;3.788;2024-02-26T09:42:44;9.65;;;6.75;;
27225;SDS011;14732;51.074;3.788;2024-02-26T09:45:12;8.55;;;6.35;;
27225;SDS011;14732;51.074;3.788;2024-02-26T09:47:43;9.32;;;7.05;;
27225;SDS011;14732;51.074;3.788;2024-02-26T09:50:10;9.73;;;5.90;;
27225;SDS011;14732;51.074;3.788;2024-02-26T09:52:38;9.93;;;7.07;;
27225;SDS011;14732;51.074;3.788;2024-02-26T09:55:07;12.88;;;7.85;;
27225;SDS011;14732;51.074;3.788;2024-02-26T09:57:37;10.95;;;7.63;;
27225;SDS011;14732;51.074;3.788;2024-02-26T10:00:03;10.73;;;7.47;;
27225;SDS011;14732;51.074;3.788;2024-02-26T10:02:33;11.63;;;6.47;;
27225;SDS011;14732;51.074;3.788;2024-02-26T10:05:02;11.35;;;7.50;;
27225;SDS011;14732;51.074;3.788;2024-02-26T10:07:31;12.82;;;7.75;;
27225;SDS011;14732;51.074;3.788;2024-02-26T10:09:57;14.48;;;6.88;;
27225;SDS011;14732;51.074;3.788;2024-02-26T10:12:23;12.95;;;7.93;;
27225;SDS011;14732;51.074;3.788;2024-02-26T10:14:50;12.18;;;8.13;;
27225;SDS011;14732;51.074;3.788;2024-02-26T10:17:16;12.55;;;7.82;;
27225;SDS011;14732;51.074;3.788;2024-02-26T10:19:43;12.70;;;7.95;;
27225;SDS011;14732;51.074;3.788;2024-02-26T10:22:09;13.93;;;8.38;;
27225;SDS011;14732;51.074;3.788;2024-02-26T10:24:35;12.65;;;8.13;;
27225;SDS011;14732;51.074;3.788;2024-02-26T10:27:00;13.27;;;8.40;;
27225;SDS011;14732;51.074;3.788;2024-02-26T10:29:27;13.35;;;8.68;;
27225;SDS011;14732;51.074;3.788;2024-02-26T10:31:53;13.10;;;7.53;;
27225;SDS011;14732;51.074;3.788;2024-02-26T10:34:19;14.20;;;8.80;;
27225;SDS011;14732;51.074;3.788;2024-02-26T10:36:45;14.25;;;7.38;;
27225;SDS011;14732;51.074;3.788;2024-02-26T10:39:14;15.48;;;9.05;;
27225;SDS011;14732;51.074;3.788;2024-02-26T10:41:41;19.15;;;9.45;;
27225;SDS011;14732;51.074;3.788;2024-02-26T10:44:11;17.20;;;8.98;;
27225;SDS011;14732;51.074;3.788;2024-02-26T10:46:38;17.08;;;9.20;;
27225;SDS011;14732;51.074;3.788;2024-02-26T10:49:12;16.45;;;9.48;;
27225;SDS011;14732;51.074;3.788;2024-02-26T10:51:40;17.48;;;9.05;;
27225;SDS011;14732;51.074;3.788;2024-02-26T10:54:09;14.65;;;9.23;;
27225;SDS011;14732;51.074;3.788;2024-02-26T10:56:40;17.38;;;9.40;;
27225;SDS011;14732;51.074;3.788;2024-02-26T10:59:09;17.38;;;9.20;;
27225;SDS011;14732;51.074;3.788;2024-02-26T11:01:38;16.08;;;8.77;;
27225;SDS011;14732;51.074;3.788;2024-02-26T11:04:06;22.00;;;10.63;;
27225;SDS011;14732;51.074;3.788;2024-02-26T11:06:33;21.90;;;11.00;;
27225;SDS011;14732;51.074;3.788;2024-02-26T11:08:59;24.38;;;12.07;;
27225;SDS011;14732;51.074;3.788;2024-02-26T11:11:27;20.63;;;11.52;;
27225;SDS011;14732;51.074;3.788;2024-02-26T11:13:54;23.33;;;12.23;;
27225;SDS011;14732;51.074;3.788;2024-02-26T11:16:22;22.40;;;11.85;;
27225;SDS011;14732;51.074;3.788;2024-02-26T11:18:48;23.63;;;11.23;;
27225;SDS011;14732;51.074;3.788;2024-02-26T11:21:17;21.80;;;11.88;;
27225;SDS011;14732;51.074;3.788;2024-02-26T11:24:03;25.93;;;13.13;;
27225;SDS011;14732;51.074;3.788;2024-02-26T11:26:46;25.67;;;13.13;;
27225;SDS011;14732;51.074;3.788;2024-02-26T11:29:17;25.48;;;12.63;;
27225;SDS011;14732;51.074;3.788;2024-02-26T11:31:46;22.77;;;12.05;;
27225;SDS011;14732;51.074;3.788;2024-02-26T11:34:12;23.13;;;12.20;;
27225;SDS011;14732;51.074;3.788;2024-02-26T11:36:38;21.52;;;11.98;;
27225;SDS011;14732;51.074;3.788;2024-02-26T11:39:04;20.35;;;10.38;;
27225;SDS011;14732;51.074;3.788;2024-02-26T11:41:30;18.88;;;11.13;;
27225;SDS011;14732;51.074;3.788;2024-02-26T11:44:03;21.33;;;10.90;;
27225;SDS011;14732;51.074;3.788;2024-02-26T11:46:32;18.02;;;10.70;;
27225;SDS011;14732;51.074;3.788;2024-02-26T11:49:29;22.05;;;12.30;;
27225;SDS011;14732;51.074;3.788;2024-02-26T11:51:52;20.23;;;11.20;;
27225;SDS011;14732;51.074;3.788;2024-02-26T11:57:30;18.95;;;10.35;;
27225;SDS011;14732;51.074;3.788;2024-02-26T12:02:43;16.97;;;10.30;;
27225;SDS011;14732;51.074;3.788;2024-02-26T12:05:15;16.67;;;9.55;;
27225;SDS011;14732;51.074;3.788;2024-02-26T12:07:46;18.08;;;9.05;;
27225;SDS011;14732;51.074;3.788;2024-02-26T12:10:35;9.45;;;6.70;;
27225;SDS011;14732;51.074;3.788;2024-02-26T12:13:07;13.00;;;8.00;;
27225;SDS011;14732;51.074;3.788;2024-02-26T12:15:37;15.18;;;9.23;;
27225;SDS011;14732;51.074;3.788;2024-02-26T12:18:05;12.82;;;8.15;;
27225;SDS011;14732;51.074;3.788;2024-02-26T12:20:32;13.77;;;8.48;;
27225;SDS011;14732;51.074;3.788;2024-02-26T12:22:59;12.38;;;7.80;;
27225;SDS011;14732;51.074;3.788;2024-02-26T12:25:25;12.32;;;7.53;;
27225;SDS011;14732;51.074;3.788;2024-02-26T12:27:53;12.45;;;7.88;;
27225;SDS011;14732;51.074;3.788;2024-02-26T12:30:19;12.88;;;8.50;;
27225;SDS011;14732;51.074;3.788;2024-02-26T12:32:45;11.75;;;7.22;;
27225;SDS011;14732;51.074;3.788;2024-02-26T12:35:15;17.15;;;7.80;;
27225;SDS011;14732;51.074;3.788;2024-02-26T12:37:42;11.05;;;7.18;;
27225;SDS011;14732;51.074;3.788;2024-02-26T12:42:38;11.20;;;6.50;;
27225;SDS011;14732;51.074;3.788;2024-02-26T12:45:05;12.15;;;7.57;;
27225;SDS011;14732;51.074;3.788;2024-02-26T12:47:38;11.75;;;6.63;;
27225;SDS011;14732;51.074;3.788;2024-02-26T12:50:05;11.48;;;7.00;;
27225;SDS011;14732;51.074;3.788;2024-02-26T12:52:34;8.57;;;5.43;;
27225;SDS011;14732;51.074;3.788;2024-02-26T12:55:15;9.88;;;6.68;;
27225;SDS011;14732;51.074;3.788;2024-02-26T12:57:43;7.65;;;5.35;;
27225;SDS011;14732;51.074;3.788;2024-02-26T13:00:14;8.73;;;6.55;;
27225;SDS011;14732;51.074;3.788;2024-02-26T13:02:41;10.73;;;6.68;;
27225;SDS011;14732;51.074;3.788;2024-02-26T13:05:09;9.45;;;5.85;;
27225;SDS011;14732;51.074;3.788;2024-02-26T13:07:42;10.77;;;6.88;;
27225;SDS011;14732;51.074;3.788;2024-02-26T13:10:09;10.93;;;6.38;;
27225;SDS011;14732;51.074;3.788;2024-02-26T13:12:45;9.38;;;6.28;;
27225;SDS011;14732;51.074;3.788;2024-02-26T13:15:21;9.45;;;6.05;;
27225;SDS011;14732;51.074;3.788;2024-02-26T13:17:47;8.30;;;6.10;;
27225;SDS011;14732;51.074;3.788;2024-02-26T13:20:27;9.27;;;6.65;;
27225;SDS011;14732;51.074;3.788;2024-02-26T13:23:00;10.13;;;6.75;;
27225;SDS011;14732;51.074;3.788;2024-02-26T13:25:30;8.63;;;5.40;;
27225;SDS011;14732;51.074;3.788;2024-02-26T13:28:06;11.98;;;6.80;;
27225;SDS011;14732;51.074;3.788;2024-02-26T13:30:34;8.90;;;5.65;;
27225;SDS011;14732;51.074;3.788;2024-02-26T13:33:10;9.60;;;6.40;;
27225;SDS011;14732;51.074;3.788;2024-02-26T13:35:37;9.55;;;6.45;;
27225;SDS011;14732;51.074;3.788;2024-02-26T13:38:04;10.45;;;6.47;;
27225;SDS011;14732;51.074;3.788;2024-02-26T13:40:30;9.38;;;6.28;;
27225;SDS011;14732;51.074;3.788;2024-02-26T13:42:56;9.15;;;6.38;;
27225;SDS011;14732;51.074;3.788;2024-02-26T13:51:19;10.50;;;6.35;;
27225;SDS011;14732;51.074;3.788;2024-02-26T13:53:45;9.75;;;6.65;;
27225;SDS011;14732;51.074;3.788;2024-02-26T13:56:10;8.13;;;6.28;;
27225;SDS011;14732;51.074;3.788;2024-02-26T13:58:36;9.13;;;5.50;;
27225;SDS011;14732;51.074;3.788;2024-02-26T14:01:02;8.65;;;6.43;;
27225;SDS011;14732;51.074;3.788;2024-02-26T14:03:28;9.82;;;6.75;;
27225;SDS011;14732;51.074;3.788;2024-02-26T14:05:54;11.30;;;6.70;;
27225;SDS011;14732;51.074;3.788;2024-02-26T14:08:19;9.32;;;7.32;;
27225;SDS011;14732;51.074;3.788;2024-02-26T14:10:45;8.43;;;5.78;;
27225;SDS011;14732;51.074;3.788;2024-02-26T14:13:11;8.15;;;5.07;;
27225;SDS011;14732;51.074;3.788;2024-02-26T14:15:37;9.23;;;6.80;;
27225;SDS011;14732;51.074;3.788;2024-02-26T14:18:04;18.88;;;5.43;;
27225;SDS011;14732;51.074;3.788;2024-02-26T14:20:30;8.98;;;6.10;;
27225;SDS011;14732;51.074;3.788;2024-02-26T14:22:55;8.82;;;6.15;;
27225;SDS011;14732;51.074;3.788;2024-02-26T14:25:21;9.77;;;6.35;;
27225;SDS011;14732;51.074;3.788;2024-02-26T14:27:47;9.70;;;5.82;;
27225;SDS011;14732;51.074;3.788;2024-02-26T14:30:13;9.35;;;6.07;;
27225;SDS011;14732;51.074;3.788;2024-02-26T14:32:39;9.75;;;6.22;;
27225;SDS011;14732;51.074;3.788;2024-02-26T14:35:06;10.95;;;6.43;;
27225;SDS011;14732;51.074;3.788;2024-02-26T14:37:32;9.45;;;6.35;;
27225;SDS011;14732;51.074;3.788;2024-02-26T14:39:58;8.73;;;6.35;;
27225;SDS011;14732;51.074;3.788;2024-02-26T14:42:24;8.73;;;6.30;;
27225;SDS011;14732;51.074;3.788;2024-02-26T14:44:50;10.77;;;7.35;;
27225;SDS011;14732;51.074;3.788;2024-02-26T14:47:16;10.07;;;6.85;;
27225;SDS011;14732;51.074;3.788;2024-02-26T14:49:42;11.00;;;6.43;;
27225;SDS011;14732;51.074;3.788;2024-02-26T14:52:07;12.20;;;6.70;;
27225;SDS011;14732;51.074;3.788;2024-02-26T14:54:33;9.63;;;6.78;;
27225;SDS011;14732;51.074;3.788;2024-02-26T14:57:03;10.32;;;6.68;;
27225;SDS011;14732;51.074;3.788;2024-02-26T14:59:30;9.57;;;7.10;;
27225;SDS011;14732;51.074;3.788;2024-02-26T15:01:56;13.52;;;7.97;;
27225;SDS011;14732;51.074;3.788;2024-02-26T15:04:22;9.35;;;6.50;;
27225;SDS011;14732;51.074;3.788;2024-02-26T15:06:48;10.93;;;7.20;;
27225;SDS011;14732;51.074;3.788;2024-02-26T15:09:13;11.65;;;8.07;;
27225;SDS011;14732;51.074;3.788;2024-02-26T15:11:39;11.90;;;7.85;;
27225;SDS011;14732;51.074;3.788;2024-02-26T15:14:05;10.98;;;7.38;;
27225;SDS011;14732;51.074;3.788;2024-02-26T15:16:34;10.70;;;7.70;;
27225;SDS011;14732;51.074;3.788;2024-02-26T15:19:00;10.10;;;7.45;;
27225;SDS011;14732;51.074;3.788;2024-02-26T15:21:25;16.30;;;7.82;;
27225;SDS011;14732;51.074;3.788;2024-02-26T15:23:51;13.07;;;7.63;;
27225;SDS011;14732;51.074;3.788;2024-02-26T15:26:19;12.55;;;7.90;;
27225;SDS011;14732;51.074;3.788;2024-02-26T15:28:45;8.57;;;5.85;;
27225;SDS011;14732;51.074;3.788;2024-02-26T15:31:11;12.93;;;8.25;;
27225;SDS011;14732;51.074;3.788;2024-02-26T15:33:37;11.10;;;7.45;;
27225;SDS011;14732;51.074;3.788;2024-02-26T15:36:03;11.35;;;7.45;;
27225;SDS011;14732;51.074;3.788;2024-02-26T15:38:28;14.15;;;7.93;;
27225;SDS011;14732;51.074;3.788;2024-02-26T15:40:54;12.45;;;8.02;;
27225;SDS011;14732;51.074;3.788;2024-02-26T15:43:20;12.63;;;7.95;;
27225;SDS011;14732;51.074;3.788;2024-02-26T15:45:46;14.45;;;8.23;;
27225;SDS011;14732;51.074;3.788;2024-02-26T15:48:13;11.65;;;7.63;;
27225;SDS011;14732;51.074;3.788;2024-02-26T15:50:39;11.05;;;7.65;;
27225;SDS011;14732;51.074;3.788;2024-02-26T15:53:07;14.65;;;8.10;;
27225;SDS011;14732;51.074;3.788;2024-02-26T15:55:33;14.05;;;8.02;;
27225;SDS011;14732;51.074;3.788;2024-02-26T15:57:59;11.40;;;7.70;;
27225;SDS011;14732;51.074;3.788;2024-02-26T16:00:25;12.73;;;7.85;;
27225;SDS011;14732;51.074;3.788;2024-02-26T16:02:51;15.18;;;9.00;;
27225;SDS011;14732;51.074;3.788;2024-02-26T16:05:17;12.55;;;8.27;;
27225;SDS011;14732;51.074;3.788;2024-02-26T16:07:54;10.93;;;7.78;;
27225;SDS011;14732;51.074;3.788;2024-02-26T16:10:21;8.57;;;5.80;;